Terminal Aerodrome Forecast
Issued by NWS Knoxville/Tri Cities, TN

Current Version | Previous Version | Text Only | Print | Product List | Glossary On
Versions: 1 2 3 4 5 6 7 8 9 10 11 12 13 14 15 16 17 18 19 20 21 22 23 24 25 26
000
FTUS44 KMRX 251723
TAFTRI
TAF
KTRI 251723Z 2518/2618 VRB05KT P6SM BKN040
     FM252100 20008KT P6SM VCTS SCT030CB BKN100
     FM260000 25012G20KT 2SM -TSRA BR BKN020CB OVC040
     FM260600 24006KT 5SM BR SCT020 BKN040
      TEMPO 2608/2612 2SM BR BKN008
     FM261300 31010KT P6SM BKN012=

USA.gov is the U.S. government's official web portal to all federal, state and local government web resources and services.